Eton, Georgia
Current Conditions -  °F | °C
As of 4:55 AM on Thursday 27 Nov 2014 (Local Time) from KDNN Reporting Station
Overcast Overcast  
Wind Chill: 38°   Ceiling: 3700
Heat Index: 41°   Visibility: 10mi
Dew Point: 32°   Wind: 5mph
Humidity: 70%   Direction: 290°WNW
Pressure: 30.14"   Gusts: NA
Location:  34.83°N, 84.76°W
Report Text: KDNN 270955Z AUTO 29004KT 10SM BKN037 OVC043 05/00 A3014 RMK AO2
Loading
Personal Weather Stations






























Interactive Weather Map New forecast layout! Learn more

10-Day Weather Forecast

Advertisements
Track Severe Weather on mobile